sensor_id;sensor_type;location;lat;lon;timestamp;pressure;altitude;pressure_sealevel;temperature;humidity
24230;BME280;12362;50.004;8.006;2023-02-13T00:02:20;102783.13;;;5.91;100.00
24230;BME280;12362;50.004;8.006;2023-02-13T00:04:45;102777.97;;;5.92;100.00
24230;BME280;12362;50.004;8.006;2023-02-13T00:07:11;102777.09;;;5.90;100.00
24230;BME280;12362;50.004;8.006;2023-02-13T00:09:38;102774.47;;;5.86;100.00
24230;BME280;12362;50.004;8.006;2023-02-13T00:12:05;102765.84;;;5.82;100.00
24230;BME280;12362;50.004;8.006;2023-02-13T00:14:34;102777.03;;;5.80;100.00
24230;BME280;12362;50.004;8.006;2023-02-13T00:17:00;102768.41;;;5.81;100.00
24230;BME280;12362;50.004;8.006;2023-02-13T00:19:26;102765.75;;;5.75;100.00
24230;BME280;12362;50.004;8.006;2023-02-13T00:21:52;102758.88;;;5.72;100.00
24230;BME280;12362;50.004;8.006;2023-02-13T00:24:17;102764.75;;;5.59;100.00
24230;BME280;12362;50.004;8.006;2023-02-13T00:26:43;102763.88;;;5.57;100.00
24230;BME280;12362;50.004;8.006;2023-02-13T00:29:08;102765.56;;;5.54;100.00
24230;BME280;12362;50.004;8.006;2023-02-13T00:31:34;102764.66;;;5.47;100.00
24230;BME280;12362;50.004;8.006;2023-02-13T00:33:59;102761.16;;;5.42;100.00
24230;BME280;12362;50.004;8.006;2023-02-13T00:36:25;102758.56;;;5.41;100.00
24230;BME280;12362;50.004;8.006;2023-02-13T00:38:52;102763.66;;;5.35;100.00
24230;BME280;12362;50.004;8.006;2023-02-13T00:41:19;102759.34;;;5.31;100.00
24230;BME280;12362;50.004;8.006;2023-02-13T00:43:45;102763.56;;;5.26;100.00
24230;BME280;12362;50.004;8.006;2023-02-13T00:46:11;102763.56;;;5.26;100.00
24230;BME280;12362;50.004;8.006;2023-02-13T00:48:37;102758.28;;;5.14;100.00
24230;BME280;12362;50.004;8.006;2023-02-13T00:51:04;102756.63;;;5.21;100.00
24230;BME280;12362;50.004;8.006;2023-02-13T00:53:30;102759.06;;;5.07;100.00
24230;BME280;12362;50.004;8.006;2023-02-13T00:55:56;102753.94;;;5.10;100.00
24230;BME280;12362;50.004;8.006;2023-02-13T00:58:22;102758.22;;;5.11;100.00
24230;BME280;12362;50.004;8.006;2023-02-13T01:00:50;102753.09;;;5.11;100.00
24230;BME280;12362;50.004;8.006;2023-02-13T01:03:16;102763.34;;;5.07;100.00
24230;BME280;12362;50.004;8.006;2023-02-13T01:05:44;102754.72;;;5.05;100.00
24230;BME280;12362;50.004;8.006;2023-02-13T01:08:11;102750.47;;;5.07;100.00
24230;BME280;12362;50.004;8.006;2023-02-13T01:10:38;102758.22;;;5.11;100.00
24230;BME280;12362;50.004;8.006;2023-02-13T01:13:07;102766.84;;;5.12;100.00
24230;BME280;12362;50.004;8.006;2023-02-13T01:15:33;102760.88;;;5.17;100.00
24230;BME280;12362;50.004;8.006;2023-02-13T01:17:59;102760.03;;;5.18;100.00
24230;BME280;12362;50.004;8.006;2023-02-13T01:20:31;102759.16;;;5.16;100.00
24230;BME280;12362;50.004;8.006;2023-02-13T01:22:58;102758.28;;;5.13;100.00
24230;BME280;12362;50.004;8.006;2023-02-13T01:25:24;102765.06;;;5.06;100.00
24230;BME280;12362;50.004;8.006;2023-02-13T01:27:49;102760.72;;;5.01;100.00
24230;BME280;12362;50.004;8.006;2023-02-13T01:30:16;102771.75;;;4.94;100.00
24230;BME280;12362;50.004;8.006;2023-02-13T01:32:44;102773.44;;;4.92;100.00
24230;BME280;12362;50.004;8.006;2023-02-13T01:35:13;102775.06;;;4.82;100.00
24230;BME280;12362;50.004;8.006;2023-02-13T01:37:39;102772.44;;;4.81;100.00
24230;BME280;12362;50.004;8.006;2023-02-13T01:40:06;102767.22;;;4.73;100.00
24230;BME280;12362;50.004;8.006;2023-02-13T01:42:34;102774.00;;;4.67;100.00
24230;BME280;12362;50.004;8.006;2023-02-13T01:47:49;102771.28;;;4.56;100.00
24230;BME280;12362;50.004;8.006;2023-02-13T01:53:22;102774.41;;;4.36;100.00
24230;BME280;12362;50.004;8.006;2023-02-13T01:55:58;102774.56;;;3.92;100.00
24230;BME280;12362;50.004;8.006;2023-02-13T01:58:30;102786.84;;;3.59;100.00
24230;BME280;12362;50.004;8.006;2023-02-13T02:00:58;102785.56;;;3.35;100.00
24230;BME280;12362;50.004;8.006;2023-02-13T02:03:37;102781.19;;;3.31;100.00
24230;BME280;12362;50.004;8.006;2023-02-13T02:06:14;102785.25;;;3.20;100.00
24230;BME280;12362;50.004;8.006;2023-02-13T02:08:41;102792.72;;;3.08;100.00
24230;BME280;12362;50.004;8.006;2023-02-13T02:11:24;102790.38;;;3.18;100.00
24230;BME280;12362;50.004;8.006;2023-02-13T02:13:51;102785.78;;;3.02;100.00
24230;BME280;12362;50.004;8.006;2023-02-13T02:16:28;102784.03;;;3.00;100.00
24230;BME280;12362;50.004;8.006;2023-02-13T02:18:54;102785.59;;;2.54;100.00
24230;BME280;12362;50.004;8.006;2023-02-13T02:35:27;102774.66;;;2.62;100.00
24230;BME280;12362;50.004;8.006;2023-02-13T02:38:34;102776.31;;;2.60;100.00
24230;BME280;12362;50.004;8.006;2023-02-13T02:41:06;102776.22;;;2.54;100.00
24230;BME280;12362;50.004;8.006;2023-02-13T02:44:03;102774.31;;;2.46;100.00
24230;BME280;12362;50.004;8.006;2023-02-13T02:46:36;102776.50;;;2.29;100.00
24230;BME280;12362;50.004;8.006;2023-02-13T02:49:12;102772.75;;;2.15;100.00
24230;BME280;12362;50.004;8.006;2023-02-13T02:52:29;102773.97;;;1.95;100.00
24230;BME280;12362;50.004;8.006;2023-02-13T02:55:06;102769.81;;;2.00;100.00
24230;BME280;12362;50.004;8.006;2023-02-13T02:57:44;102781.63;;;1.94;100.00
24230;BME280;12362;50.004;8.006;2023-02-13T03:00:33;102778.09;;;1.89;100.00
24230;BME280;12362;50.004;8.006;2023-02-13T03:03:21;102778.88;;;1.86;100.00
24230;BME280;12362;50.004;8.006;2023-02-13T03:06:29;102780.28;;;1.74;100.00
24230;BME280;12362;50.004;8.006;2023-02-13T03:08:59;102782.91;;;1.77;100.00
24230;BME280;12362;50.004;8.006;2023-02-13T03:11:48;102778.50;;;1.72;100.00
24230;BME280;12362;50.004;8.006;2023-02-13T03:14:33;102780.06;;;1.67;100.00
24230;BME280;12362;50.004;8.006;2023-02-13T03:16:58;102775.88;;;1.70;100.00
24230;BME280;12362;50.004;8.006;2023-02-13T03:31:47;102770.03;;;2.09;100.00
24230;BME280;12362;50.004;8.006;2023-02-13T03:34:21;102773.50;;;2.11;100.00
24230;BME280;12362;50.004;8.006;2023-02-13T03:37:14;102777.72;;;2.09;100.00
24230;BME280;12362;50.004;8.006;2023-02-13T03:40:03;102777.72;;;2.09;100.00
24230;BME280;12362;50.004;8.006;2023-02-13T03:45:12;102782.72;;;2.05;100.00
24230;BME280;12362;50.004;8.006;2023-02-13T03:48:00;102786.41;;;1.80;100.00
24230;BME280;12362;50.004;8.006;2023-02-13T03:50:52;102785.09;;;1.64;100.00
24230;BME280;12362;50.004;8.006;2023-02-13T03:53:18;102791.22;;;1.36;100.00
24230;BME280;12362;50.004;8.006;2023-02-13T03:55:45;102794.97;;;1.18;100.00
24230;BME280;12362;50.004;8.006;2023-02-13T03:58:34;102791.88;;;1.29;100.00
24230;BME280;12362;50.004;8.006;2023-02-13T04:01:26;102789.38;;;1.32;100.00
24230;BME280;12362;50.004;8.006;2023-02-13T04:04:12;102796.13;;;1.29;100.00
24230;BME280;12362;50.004;8.006;2023-02-13T04:06:45;102798.78;;;1.33;100.00
24230;BME280;12362;50.004;8.006;2023-02-13T04:09:11;102794.84;;;1.44;100.00
24230;BME280;12362;50.004;8.006;2023-02-13T04:14:35;102796.22;;;1.64;100.00
24230;BME280;12362;50.004;8.006;2023-02-13T04:17:15;102800.28;;;1.56;100.00
24230;BME280;12362;50.004;8.006;2023-02-13T04:19:42;102796.78;;;1.22;100.00
24230;BME280;12362;50.004;8.006;2023-02-13T04:22:10;102809.38;;;0.85;100.00
24230;BME280;12362;50.004;8.006;2023-02-13T04:24:36;102799.16;;;0.85;100.00
24230;BME280;12362;50.004;8.006;2023-02-13T04:27:02;102797.50;;;0.87;100.00
24230;BME280;12362;50.004;8.006;2023-02-13T04:29:27;102795.19;;;0.96;100.00
24230;BME280;12362;50.004;8.006;2023-02-13T04:31:53;102792.25;;;1.12;100.00
24230;BME280;12362;50.004;8.006;2023-02-13T04:34:19;102790.19;;;0.99;100.00
24230;BME280;12362;50.004;8.006;2023-02-13T04:36:45;102792.63;;;0.94;100.00
24230;BME280;12362;50.004;8.006;2023-02-13T04:39:11;102793.50;;;0.96;100.00
24230;BME280;12362;50.004;8.006;2023-02-13T04:41:36;102786.53;;;0.91;100.00
24230;BME280;12362;50.004;8.006;2023-02-13T04:44:02;102793.09;;;0.82;100.00
24230;BME280;12362;50.004;8.006;2023-02-13T04:46:27;102783.63;;;0.79;100.00
24230;BME280;12362;50.004;8.006;2023-02-13T04:48:53;102785.41;;;0.82;100.00
24230;BME280;12362;50.004;8.006;2023-02-13T04:51:28;102786.00;;;0.73;100.00
24230;BME280;12362;50.004;8.006;2023-02-13T04:53:53;102786.72;;;0.69;100.00
24230;BME280;12362;50.004;8.006;2023-02-13T04:56:19;102790.69;;;0.60;100.00
24230;BME280;12362;50.004;8.006;2023-02-13T04:58:44;102787.13;;;0.53;100.00
24230;BME280;12362;50.004;8.006;2023-02-13T05:01:12;102793.50;;;0.39;100.00
24230;BME280;12362;50.004;8.006;2023-02-13T05:03:38;102792.50;;;0.36;100.00
24230;BME280;12362;50.004;8.006;2023-02-13T05:06:03;102791.75;;;0.38;100.00
24230;BME280;12362;50.004;8.006;2023-02-13T05:08:29;102796.22;;;0.45;100.00
24230;BME280;12362;50.004;8.006;2023-02-13T05:10:55;102799.56;;;0.43;100.00
24230;BME280;12362;50.004;8.006;2023-02-13T05:13:20;102796.44;;;0.25;100.00
24230;BME280;12362;50.004;8.006;2023-02-13T05:15:47;102792.75;;;0.15;100.00
24230;BME280;12362;50.004;8.006;2023-02-13T05:18:12;102797.31;;;0.25;100.00
24230;BME280;12362;50.004;8.006;2023-02-13T05:20:40;102799.59;;;0.16;100.00
24230;BME280;12362;50.004;8.006;2023-02-13T05:23:12;102794.16;;;0.07;100.00
24230;BME280;12362;50.004;8.006;2023-02-13T05:25:47;102800.88;;;0.04;100.00
24230;BME280;12362;50.004;8.006;2023-02-13T05:28:13;102797.31;;;-0.01;100.00
24230;BME280;12362;50.004;8.006;2023-02-13T05:30:57;102799.94;;;0.02;100.00
24230;BME280;12362;50.004;8.006;2023-02-13T05:33:22;102799.88;;;-0.01;100.00
24230;BME280;12362;50.004;8.006;2023-02-13T05:35:48;102796.34;;;-0.04;100.00
24230;BME280;12362;50.004;8.006;2023-02-13T05:38:13;102792.28;;;0.02;100.00
24230;BME280;12362;50.004;8.006;2023-02-13T05:40:39;102796.25;;;-0.07;100.00
24230;BME280;12362;50.004;8.006;2023-02-13T05:43:04;102794.41;;;-0.11;100.00
24230;BME280;12362;50.004;8.006;2023-02-13T05:45:30;102797.53;;;-0.20;100.00
24230;BME280;12362;50.004;8.006;2023-02-13T05:47:56;102799.31;;;-0.17;100.00
24230;BME280;12362;50.004;8.006;2023-02-13T05:50:21;102802.69;;;-0.18;100.00
24230;BME280;12362;50.004;8.006;2023-02-13T05:52:47;102805.28;;;-0.17;100.00
24230;BME280;12362;50.004;8.006;2023-02-13T05:55:12;102794.53;;;-0.08;100.00
24230;BME280;12362;50.004;8.006;2023-02-13T05:57:38;102799.69;;;-0.05;100.00
24230;BME280;12362;50.004;8.006;2023-02-13T06:00:04;102800.47;;;-0.08;100.00
24230;BME280;12362;50.004;8.006;2023-02-13T06:02:31;102801.38;;;-0.07;100.00
24230;BME280;12362;50.004;8.006;2023-02-13T06:04:56;102804.78;;;-0.07;100.00
24230;BME280;12362;50.004;8.006;2023-02-13T06:07:22;102804.00;;;-0.04;100.00
24230;BME280;12362;50.004;8.006;2023-02-13T06:09:47;102803.50;;;0.05;100.00
24230;BME280;12362;50.004;8.006;2023-02-13T06:12:13;102806.09;;;-0.18;100.00
24230;BME280;12362;50.004;8.006;2023-02-13T06:14:38;102800.19;;;-0.17;100.00
24230;BME280;12362;50.004;8.006;2023-02-13T06:17:04;102800.44;;;-0.09;100.00
24230;BME280;12362;50.004;8.006;2023-02-13T06:19:29;102800.75;;;0.01;100.00
24230;BME280;12362;50.004;8.006;2023-02-13T06:22:01;102800.44;;;-0.09;100.00
24230;BME280;12362;50.004;8.006;2023-02-13T06:24:27;102800.38;;;-0.11;100.00
24230;BME280;12362;50.004;8.006;2023-02-13T06:26:52;102798.97;;;-0.28;100.00
24230;BME280;12362;50.004;8.006;2023-02-13T06:29:17;102806.41;;;-0.34;100.00
24230;BME280;12362;50.004;8.006;2023-02-13T06:31:43;102808.09;;;-0.34;100.00
24230;BME280;12362;50.004;8.006;2023-02-13T06:34:09;102810.28;;;-0.45;100.00
24230;BME280;12362;50.004;8.006;2023-02-13T06:36:34;102805.56;;;-0.34;100.00
24230;BME280;12362;50.004;8.006;2023-02-13T06:39:03;102808.00;;;-0.37;100.00
24230;BME280;12362;50.004;8.006;2023-02-13T06:41:28;102808.22;;;-0.55;100.00
24230;BME280;12362;50.004;8.006;2023-02-13T06:43:54;102809.94;;;-0.55;100.00
24230;BME280;12362;50.004;8.006;2023-02-13T06:46:20;102815.06;;;-0.54;100.00
24230;BME280;12362;50.004;8.006;2023-02-13T06:48:46;102817.50;;;-0.57;100.00
24230;BME280;12362;50.004;8.006;2023-02-13T06:51:13;102809.72;;;-0.61;100.00
24230;BME280;12362;50.004;8.006;2023-02-13T06:53:39;102813.34;;;-0.55;100.00
24230;BME280;12362;50.004;8.006;2023-02-13T06:56:04;102818.31;;;-0.58;100.00
24230;BME280;12362;50.004;8.006;2023-02-13T06:58:31;102811.59;;;-0.56;100.00
24230;BME280;12362;50.004;8.006;2023-02-13T07:00:58;102810.81;;;-0.53;100.00
24230;BME280;12362;50.004;8.006;2023-02-13T07:03:24;102817.91;;;-0.46;100.00
24230;BME280;12362;50.004;8.006;2023-02-13T07:05:49;102822.28;;;-0.42;100.00
24230;BME280;12362;50.004;8.006;2023-02-13T07:08:16;102822.22;;;-0.44;100.00
24230;BME280;12362;50.004;8.006;2023-02-13T07:10:42;102825.03;;;-0.36;100.00
24230;BME280;12362;50.004;8.006;2023-02-13T07:13:09;102823.69;;;-0.27;100.00
24230;BME280;12362;50.004;8.006;2023-02-13T07:15:35;102816.34;;;-0.16;100.00
24230;BME280;12362;50.004;8.006;2023-02-13T07:18:04;102820.88;;;-0.09;100.00
24230;BME280;12362;50.004;8.006;2023-02-13T07:20:30;102822.84;;;-0.01;100.00
24230;BME280;12362;50.004;8.006;2023-02-13T07:23:00;102818.03;;;0.08;100.00
24230;BME280;12362;50.004;8.006;2023-02-13T07:25:29;102822.72;;;0.21;100.00
24230;BME280;12362;50.004;8.006;2023-02-13T07:28:00;102822.91;;;0.27;100.00
24230;BME280;12362;50.004;8.006;2023-02-13T07:30:26;102820.41;;;0.28;100.00
24230;BME280;12362;50.004;8.006;2023-02-13T07:33:01;102825.44;;;0.27;100.00
24230;BME280;12362;50.004;8.006;2023-02-13T07:35:28;102814.66;;;0.35;100.00
24230;BME280;12362;50.004;8.006;2023-02-13T07:37:54;102818.41;;;0.46;100.00
24230;BME280;12362;50.004;8.006;2023-02-13T07:40:20;102819.56;;;0.56;100.00
24230;BME280;12362;50.004;8.006;2023-02-13T07:42:46;102816.47;;;0.67;100.00
24230;BME280;12362;50.004;8.006;2023-02-13T07:45:12;102821.09;;;0.79;100.00
24230;BME280;12362;50.004;8.006;2023-02-13T07:47:39;102814.75;;;0.94;100.00
24230;BME280;12362;50.004;8.006;2023-02-13T07:50:11;102817.53;;;1.01;100.00
24230;BME280;12362;50.004;8.006;2023-02-13T07:52:36;102816.81;;;1.07;100.00
24230;BME280;12362;50.004;8.006;2023-02-13T07:55:03;102819.03;;;1.24;100.00
24230;BME280;12362;50.004;8.006;2023-02-13T07:57:28;102816.81;;;1.38;100.00
24230;BME280;12362;50.004;8.006;2023-02-13T07:59:56;102815.25;;;1.41;100.00
24230;BME280;12362;50.004;8.006;2023-02-13T08:02:22;102820.69;;;1.53;100.00
24230;BME280;12362;50.004;8.006;2023-02-13T08:04:47;102820.09;;;1.63;100.00
24230;BME280;12362;50.004;8.006;2023-02-13T08:07:14;102816.25;;;1.80;100.00
24230;BME280;12362;50.004;8.006;2023-02-13T08:09:40;102807.19;;;1.92;100.00
24230;BME280;12362;50.004;8.006;2023-02-13T08:12:26;102817.75;;;2.04;100.00
24230;BME280;12362;50.004;8.006;2023-02-13T08:14:52;102820.44;;;2.10;100.00
24230;BME280;12362;50.004;8.006;2023-02-13T08:17:17;102819.66;;;2.13;100.00
24230;BME280;12362;50.004;8.006;2023-02-13T08:23:07;102822.56;;;2.28;100.00
24230;BME280;12362;50.004;8.006;2023-02-13T08:25:33;102816.66;;;2.30;100.00
24230;BME280;12362;50.004;8.006;2023-02-13T08:27:59;102822.00;;;2.39;100.00
24230;BME280;12362;50.004;8.006;2023-02-13T08:30:26;102815.72;;;2.64;100.00
24230;BME280;12362;50.004;8.006;2023-02-13T08:32:52;102814.94;;;2.66;100.00
24230;BME280;12362;50.004;8.006;2023-02-13T08:35:24;102819.53;;;2.82;100.00
24230;BME280;12362;50.004;8.006;2023-02-13T08:37:54;102818.72;;;2.84;100.00
24230;BME280;12362;50.004;8.006;2023-02-13T08:40:20;102816.78;;;3.13;100.00
24230;BME280;12362;50.004;8.006;2023-02-13T08:42:45;102810.19;;;3.27;100.00
24230;BME280;12362;50.004;8.006;2023-02-13T08:45:11;102817.13;;;3.31;100.00
24230;BME280;12362;50.004;8.006;2023-02-13T08:47:37;102822.59;;;3.47;100.00
24230;BME280;12362;50.004;8.006;2023-02-13T08:50:16;102820.06;;;3.50;100.00
24230;BME280;12362;50.004;8.006;2023-02-13T08:52:45;102814.25;;;3.58;100.00
24230;BME280;12362;50.004;8.006;2023-02-13T08:55:10;102812.59;;;3.60;100.00
24230;BME280;12362;50.004;8.006;2023-02-13T08:57:36;102815.31;;;3.69;100.00
24230;BME280;12362;50.004;8.006;2023-02-13T09:00:01;102813.22;;;3.98;100.00
24230;BME280;12362;50.004;8.006;2023-02-13T09:02:27;102816.84;;;4.10;100.00
24230;BME280;12362;50.004;8.006;2023-02-13T09:04:53;102816.19;;;4.20;100.00
24230;BME280;12362;50.004;8.006;2023-02-13T09:07:18;102814.66;;;4.33;100.00
24230;BME280;12362;50.004;8.006;2023-02-13T09:09:44;102816.25;;;4.26;100.00
24230;BME280;12362;50.004;8.006;2023-02-13T09:12:09;102821.75;;;4.48;100.00
24230;BME280;12362;50.004;8.006;2023-02-13T09:14:35;102817.56;;;4.55;100.00
24230;BME280;12362;50.004;8.006;2023-02-13T09:17:03;102816.03;;;4.67;100.00
24230;BME280;12362;50.004;8.006;2023-02-13T09:19:29;102813.44;;;4.66;100.00
24230;BME280;12362;50.004;8.006;2023-02-13T09:21:57;102811.59;;;4.57;100.00
24230;BME280;12362;50.004;8.006;2023-02-13T09:24:23;102807.44;;;4.67;100.00
24230;BME280;12362;50.004;8.006;2023-02-13T09:26:48;102807.94;;;5.06;100.00
24230;BME280;12362;50.004;8.006;2023-02-13T09:29:14;102809.28;;;5.46;100.00
24230;BME280;12362;50.004;8.006;2023-02-13T09:31:40;102796.91;;;5.94;100.00
24230;BME280;12362;50.004;8.006;2023-02-13T09:34:05;102802.31;;;6.27;100.00
24230;BME280;12362;50.004;8.006;2023-02-13T09:36:31;102801.69;;;6.62;100.00
24230;BME280;12362;50.004;8.006;2023-02-13T09:38:57;102801.72;;;6.67;100.00
24230;BME280;12362;50.004;8.006;2023-02-13T09:41:32;102796.69;;;6.97;100.00
24230;BME280;12362;50.004;8.006;2023-02-13T09:46:34;102794.25;;;7.31;100.00
24230;BME280;12362;50.004;8.006;2023-02-13T09:49:20;102796.78;;;7.23;100.00
24230;BME280;12362;50.004;8.006;2023-02-13T09:52:08;102796.88;;;7.59;100.00
24230;BME280;12362;50.004;8.006;2023-02-13T09:54:34;102791.72;;;7.76;100.00
24230;BME280;12362;50.004;8.006;2023-02-13T09:59:57;102785.72;;;8.32;100.00
24230;BME280;12362;50.004;8.006;2023-02-13T10:05:45;102784.72;;;8.79;100.00
24230;BME280;12362;50.004;8.006;2023-02-13T10:11:12;102774.28;;;8.96;100.00
24230;BME280;12362;50.004;8.006;2023-02-13T10:16:54;102762.84;;;9.40;100.00
24230;BME280;12362;50.004;8.006;2023-02-13T10:22:55;102755.53;;;9.93;100.00
24230;BME280;12362;50.004;8.006;2023-02-13T10:25:26;102757.34;;;9.83;100.00
24230;BME280;12362;50.004;8.006;2023-02-13T10:27:55;102742.34;;;10.18;100.00
24230;BME280;12362;50.004;8.006;2023-02-13T10:30:30;102736.09;;;10.38;100.00
24230;BME280;12362;50.004;8.006;2023-02-13T10:33:00;102734.19;;;10.54;100.00
24230;BME280;12362;50.004;8.006;2023-02-13T10:38:20;102714.34;;;11.14;100.00
24230;BME280;12362;50.004;8.006;2023-02-13T10:43:38;102701.81;;;11.40;100.00
24230;BME280;12362;50.004;8.006;2023-02-13T10:46:38;102703.34;;;11.55;100.00
24230;BME280;12362;50.004;8.006;2023-02-13T10:49:43;102690.81;;;11.77;100.00
24230;BME280;12362;50.004;8.006;2023-02-13T10:58:20;102692.19;;;11.98;100.00
24230;BME280;12362;50.004;8.006;2023-02-13T11:00:57;102691.22;;;11.54;100.00
24230;BME280;12362;50.004;8.006;2023-02-13T11:03:29;102687.63;;;11.61;100.00
24230;BME280;12362;50.004;8.006;2023-02-13T11:06:10;102685.00;;;12.10;100.00
24230;BME280;12362;50.004;8.006;2023-02-13T11:08:41;102670.66;;;12.76;100.00
24230;BME280;12362;50.004;8.006;2023-02-13T11:14:18;102652.72;;;13.00;100.00
24230;BME280;12362;50.004;8.006;2023-02-13T11:16:55;102656.56;;;12.84;100.00
24230;BME280;12362;50.004;8.006;2023-02-13T11:22:00;102650.75;;;13.46;100.00
24230;BME280;12362;50.004;8.006;2023-02-13T11:24:28;102647.19;;;13.50;100.00
24230;BME280;12362;50.004;8.006;2023-02-13T11:27:03;102649.84;;;13.14;100.00
24230;BME280;12362;50.004;8.006;2023-02-13T11:29:35;102651.22;;;12.90;100.00
24230;BME280;12362;50.004;8.006;2023-02-13T11:32:19;102645.84;;;12.98;100.00
24230;BME280;12362;50.004;8.006;2023-02-13T11:34:46;102648.56;;;12.93;100.00
24230;BME280;12362;50.004;8.006;2023-02-13T11:39:39;102652.06;;;13.29;100.00
24230;BME280;12362;50.004;8.006;2023-02-13T11:44:52;102643.19;;;13.70;100.00
24230;BME280;12362;50.004;8.006;2023-02-13T11:47:40;102640.97;;;13.87;100.00
24230;BME280;12362;50.004;8.006;2023-02-13T11:50:21;102627.56;;;14.01;100.00
24230;BME280;12362;50.004;8.006;2023-02-13T11:52:56;102623.47;;;14.53;100.00
24230;BME280;12362;50.004;8.006;2023-02-13T12:00:40;102609.81;;;14.71;100.00
24230;BME280;12362;50.004;8.006;2023-02-13T12:07:24;102613.03;;;14.52;100.00
24230;BME280;12362;50.004;8.006;2023-02-13T12:10:22;102607.78;;;14.53;100.00
24230;BME280;12362;50.004;8.006;2023-02-13T12:12:53;102598.91;;;14.86;100.00
24230;BME280;12362;50.004;8.006;2023-02-13T12:15:29;102596.44;;;14.81;100.00
24230;BME280;12362;50.004;8.006;2023-02-13T12:20:40;102588.44;;;14.86;96.92
24230;BME280;12362;50.004;8.006;2023-02-13T12:26:32;102571.84;;;14.59;99.87
24230;BME280;12362;50.004;8.006;2023-02-13T12:51:17;102562.22;;;14.87;100.00
24230;BME280;12362;50.004;8.006;2023-02-13T13:28:54;102526.47;;;16.34;82.84
24230;BME280;12362;50.004;8.006;2023-02-13T13:31:27;102520.44;;;16.08;88.98
24230;BME280;12362;50.004;8.006;2023-02-13T13:33:59;102519.69;;;15.81;96.44
24230;BME280;12362;50.004;8.006;2023-02-13T13:36:43;102519.06;;;16.21;88.74
24230;BME280;12362;50.004;8.006;2023-02-13T13:43:39;102515.91;;;15.65;89.87
24230;BME280;12362;50.004;8.006;2023-02-13T13:54:45;102504.78;;;15.83;86.37
24230;BME280;12362;50.004;8.006;2023-02-13T13:57:20;102503.19;;;16.02;83.99
24230;BME280;12362;50.004;8.006;2023-02-13T14:05:00;102500.22;;;15.15;91.74
24230;BME280;12362;50.004;8.006;2023-02-13T14:07:35;102496.88;;;15.12;92.93
24230;BME280;12362;50.004;8.006;2023-02-13T14:10:03;102493.84;;;15.24;91.64
24230;BME280;12362;50.004;8.006;2023-02-13T14:14:56;102489.88;;;15.85;86.43
24230;BME280;12362;50.004;8.006;2023-02-13T14:20:22;102486.19;;;15.66;86.28
24230;BME280;12362;50.004;8.006;2023-02-13T14:22:51;102485.69;;;15.57;90.29
24230;BME280;12362;50.004;8.006;2023-02-13T14:25:23;102483.75;;;16.08;79.92
24230;BME280;12362;50.004;8.006;2023-02-13T14:27:58;102475.97;;;15.60;85.54
24230;BME280;12362;50.004;8.006;2023-02-13T14:30:30;102470.22;;;16.41;74.25
24230;BME280;12362;50.004;8.006;2023-02-13T14:33:21;102473.53;;;16.46;77.09
24230;BME280;12362;50.004;8.006;2023-02-13T14:35:59;102471.44;;;16.54;71.90
24230;BME280;12362;50.004;8.006;2023-02-13T14:38:29;102479.69;;;15.99;84.31
24230;BME280;12362;50.004;8.006;2023-02-13T14:40:54;102479.84;;;16.18;84.05
24230;BME280;12362;50.004;8.006;2023-02-13T14:43:46;102473.88;;;16.37;81.49
24230;BME280;12362;50.004;8.006;2023-02-13T14:46:35;102480.72;;;16.18;78.14
24230;BME280;12362;50.004;8.006;2023-02-13T14:51:58;102467.91;;;15.42;86.44
24230;BME280;12362;50.004;8.006;2023-02-13T14:54:37;102478.16;;;15.48;87.25
24230;BME280;12362;50.004;8.006;2023-02-13T14:57:09;102471.38;;;15.17;85.63
24230;BME280;12362;50.004;8.006;2023-02-13T14:59:42;102467.19;;;15.61;84.27
24230;BME280;12362;50.004;8.006;2023-02-13T15:02:35;102467.34;;;15.08;86.78
24230;BME280;12362;50.004;8.006;2023-02-13T15:05:14;102468.38;;;15.53;90.04
24230;BME280;12362;50.004;8.006;2023-02-13T15:07:45;102469.31;;;15.28;90.76
24230;BME280;12362;50.004;8.006;2023-02-13T15:10:35;102466.78;;;15.23;90.87
24230;BME280;12362;50.004;8.006;2023-02-13T15:13:04;102471.28;;;15.20;89.75
24230;BME280;12362;50.004;8.006;2023-02-13T15:15:35;102462.22;;;15.05;84.89
24230;BME280;12362;50.004;8.006;2023-02-13T15:18:06;102468.00;;;14.89;88.62
24230;BME280;12362;50.004;8.006;2023-02-13T15:20:33;102472.66;;;14.53;97.88
24230;BME280;12362;50.004;8.006;2023-02-13T15:22:59;102473.34;;;14.86;93.20
24230;BME280;12362;50.004;8.006;2023-02-13T15:25:31;102469.00;;;14.85;95.12
24230;BME280;12362;50.004;8.006;2023-02-13T15:27:58;102474.19;;;14.86;96.98
24230;BME280;12362;50.004;8.006;2023-02-13T15:30:25;102469.88;;;14.85;98.63
24230;BME280;12362;50.004;8.006;2023-02-13T15:32:55;102461.72;;;15.19;99.93
24230;BME280;12362;50.004;8.006;2023-02-13T15:35:24;102463.22;;;15.01;97.17
24230;BME280;12362;50.004;8.006;2023-02-13T15:37:51;102465.13;;;14.45;100.00
24230;BME280;12362;50.004;8.006;2023-02-13T15:40:27;102461.06;;;14.07;100.00
24230;BME280;12362;50.004;8.006;2023-02-13T15:42:54;102466.59;;;13.97;100.00
24230;BME280;12362;50.004;8.006;2023-02-13T15:45:22;102460.16;;;14.08;100.00
24230;BME280;12362;50.004;8.006;2023-02-13T15:47:49;102463.44;;;13.86;100.00
24230;BME280;12362;50.004;8.006;2023-02-13T15:52:43;102457.94;;;13.36;100.00
24230;BME280;12362;50.004;8.006;2023-02-13T15:55:22;102462.09;;;13.09;100.00
24230;BME280;12362;50.004;8.006;2023-02-13T15:57:49;102466.69;;;13.01;100.00
24230;BME280;12362;50.004;8.006;2023-02-13T16:02:46;102469.22;;;12.68;100.00
24230;BME280;12362;50.004;8.006;2023-02-13T16:05:15;102471.34;;;12.53;100.00
24230;BME280;12362;50.004;8.006;2023-02-13T16:07:47;102477.09;;;12.30;100.00
24230;BME280;12362;50.004;8.006;2023-02-13T16:10:14;102478.66;;;11.99;100.00
24230;BME280;12362;50.004;8.006;2023-02-13T16:12:46;102479.47;;;11.61;100.00